CNS4 weather

Alexandria Aerodrome
Alexandria, Ontario, Canada

Public forecast

Using degrees Celsius for public forecast. Weather courtesy of forecast.io.

Closest aviation weather report (METAR) to Alexandria Aerodrome

Closest report is Massena International Richards Field, 25.5 nm (47.2 km) SSW. Retrieved 2019/10/19 02:53 UTC (21 minutes ago):

KMSS 190253Z AUTO 29003KT 10SM OVC040 07/01 A3002 RMK AO2 SLP168 T00720011 51006

Closest aviation forecast (TAF) to Alexandria Aerodrome

Closest forecast is Massena International Richards Field, 25.5 nm (47.2 km) SSW. Retrieved 2019-10-19 00:42 UTC (3 hours ago):

TAF KMSS 182339Z 1900/1924 27006KT P6SM OVC040 FM191400 24005KT P6SM SKC